Falls International Airport
KINL : rendu visible

Aérodrome :











RETROUVEZ-NOUS SUR...

 
LOGIN :

S'inscrire | Disclaimer

   EN    FR    IT 

 









Légende :    VFR   VFR Marginal   IFR   IFR Intensif   IFR Très Intensif
Visi : 
Plafond : 
>= 8 km
>= 3000ft
5 à 8 km
1000 à 3000 ft
1500m à 5 km
500 à 1000 ft
800 à 1500m
200 à 500 ft
< 800m
< 200 ft
Symboles :   Orages  Brouillard  Fortes neiges  Fortes précipitations  Vent > 20 kt






- Altitude de l'aérodrome : 1185 ft
- Code IATA : INL


KINL - Falls International

DERNIER METAR :
  • 281155Z AUTO 23003KT 10SM CLR 11/04 A2991 RMK AO2 SLP130 T01060044 10128 20061 53003 $

METARs EXPIRÉS :
  • 281055Z AUTO 00000KT 10SM CLR 07/04 A2991 RMK AO2 SLP128 T00670044 $
  • 280955Z AUTO 00000KT 10SM CLR 08/06 A2990 RMK AO2 SLP127 T00780056 $

TAF KINL
Valide du 28 à 12h jusqu'au 29 à 12h UTC


281208Z 2812/2912 30004KT P6SM SKC
FM281700 27012KT P6SM SKC
FM290300 31008G16KT P6SM BKN020
FIR KZMP / Amérique du Nord



MET'MAP, la Météo Aéronautique d'un coup d'oeil ! - Copyright ORBIFLY Décembre 2007 - Disclaimer

ORBIFLY MET'MAP TEAM :

Programmation & Développement : Alexandra Zaïnal
Sur une idée originale de : Baudouin d'Aumeries
Assistance à la programmation : Marc-Olivier Méhu
Soutien technique & logistique : Manuel Goepfert

Contact : metmap@orbifly.com




SOURCES & CREDITS :

   NOAA       Earth
Advisory